Terminal Aerodrome Forecast
Issued by NWS

Home | Current Version | Previous Version | Text Only | Print | Product List | Glossary On
Versions: 1 2 3 4 5 6 7 8 9 10 11 12 13 14 15 16 17 18 19 20 21 22 23 24 25 26 27 28 29 30 31 32 33 34 35 36 37 38 39 40 41 42 43 44 45 46 47 48
000
FTUS42 KGSP 022320
TAFHKY
TAF
KHKY 022320Z 0300/0324 18007KT P6SM SCT060 OVC120
      TEMPO 0303/0307 4SM -TSRA OVC040CB
     FM030700 22006KT P6SM VCSH OVC010
     FM030900 24005KT 5SM BR VCSH OVC008
     FM031300 26006G15KT P6SM BKN045 PROB30 0314/0320 4SM -TSRA
      OVC025CB=

USA.gov is the U.S. government's official web portal to all federal, state and local government web resources and services.